createdAt,value
2023-03-20T00:00:31.268Z,8.37
2023-03-20T00:01:53.245Z,8.34
2023-03-20T00:02:56.720Z,8.32
2023-03-20T00:03:59.799Z,8.32
2023-03-20T00:05:02.750Z,8.33
2023-03-20T00:06:06.266Z,8.35
2023-03-20T00:07:13.134Z,8.38
2023-03-20T00:08:16.291Z,8.41
2023-03-20T00:09:19.200Z,8.42
2023-03-20T00:10:25.471Z,8.43
2023-03-20T00:11:33.143Z,8.43
2023-03-20T00:12:36.237Z,8.44
2023-03-20T00:13:39.146Z,8.44
2023-03-20T00:14:42.160Z,8.44
2023-03-20T00:15:45.540Z,8.47
2023-03-20T00:16:50.616Z,8.47
2023-03-20T00:17:54.345Z,8.47
2023-03-20T00:18:57.874Z,8.48
2023-03-20T00:20:00.949Z,8.47
2023-03-20T00:21:03.985Z,8.48
2023-03-20T00:22:06.966Z,8.50
2023-03-20T00:23:10.243Z,8.51
2023-03-20T00:24:14.202Z,8.51
2023-03-20T00:25:20.758Z,8.51
2023-03-20T00:26:33.992Z,8.54
2023-03-20T00:27:37.748Z,8.54
2023-03-20T00:28:46.248Z,8.52
2023-03-20T00:29:49.095Z,8.52
2023-03-20T00:30:52.117Z,8.53
2023-03-20T00:31:55.965Z,8.54
2023-03-20T00:32:59.727Z,8.54
2023-03-20T00:34:07.356Z,8.52
2023-03-20T00:35:37.301Z,8.51
2023-03-20T00:36:41.102Z,8.49
2023-03-20T00:37:44.169Z,8.47
2023-03-20T00:38:47.662Z,8.47
2023-03-20T00:39:50.521Z,8.49
2023-03-20T00:40:53.510Z,8.51
2023-03-20T00:42:00.791Z,8.51
2023-03-20T00:43:04.959Z,8.51
2023-03-20T00:44:42.751Z,8.53
2023-03-20T00:45:46.518Z,8.53
2023-03-20T00:47:02.740Z,8.52
2023-03-20T00:48:06.102Z,8.51
2023-03-20T00:49:11.871Z,8.50
2023-03-20T00:50:17.755Z,8.52
2023-03-20T00:51:20.835Z,8.53
2023-03-20T00:52:24.689Z,8.52
2023-03-20T00:53:27.995Z,8.52
2023-03-20T00:54:31.930Z,8.52
2023-03-20T00:55:36.153Z,8.52
2023-03-20T00:56:45.866Z,8.54
2023-03-20T00:57:50.690Z,8.57
2023-03-20T00:58:54.311Z,8.60
2023-03-20T01:00:06.879Z,8.63
2023-03-20T01:01:09.871Z,8.66
2023-03-20T01:02:13.048Z,8.68
2023-03-20T01:03:24.557Z,8.70
2023-03-20T01:04:35.785Z,8.73
2023-03-20T01:05:39.584Z,8.74
2023-03-20T01:06:43.278Z,8.76
2023-03-20T01:07:46.731Z,8.77
2023-03-20T01:08:49.736Z,8.78
2023-03-20T01:09:52.939Z,8.80
2023-03-20T01:10:58.691Z,8.80
2023-03-20T01:12:03.225Z,8.83
2023-03-20T01:13:17.460Z,8.86
2023-03-20T01:14:20.420Z,8.87
2023-03-20T01:15:27.683Z,8.89
2023-03-20T01:16:30.681Z,8.91
2023-03-20T01:17:33.773Z,8.91
2023-03-20T01:18:37.254Z,8.90
2023-03-20T01:19:40.802Z,8.89
2023-03-20T01:20:43.804Z,8.88
2023-03-20T01:21:46.850Z,8.88
2023-03-20T01:22:50.392Z,8.90
2023-03-20T01:23:53.193Z,8.92
2023-03-20T01:24:56.158Z,8.92
2023-03-20T01:25:59.256Z,8.91
2023-03-20T01:27:04.251Z,8.91
2023-03-20T01:28:19.490Z,8.91
2023-03-20T01:29:25.279Z,8.92
2023-03-20T01:32:00.791Z,8.97
2023-03-20T01:33:13.658Z,8.98
2023-03-20T01:34:17.267Z,9.00
2023-03-20T01:35:22.966Z,9.01
2023-03-20T01:36:26.317Z,9.03
2023-03-20T01:37:29.803Z,9.03
2023-03-20T01:38:36.481Z,9.05
2023-03-20T01:39:39.846Z,9.05
2023-03-20T01:40:51.127Z,9.06
2023-03-20T01:41:54.915Z,9.07
2023-03-20T01:43:00.122Z,9.08
2023-03-20T01:44:19.718Z,9.08
2023-03-20T01:45:30.030Z,9.08
2023-03-20T01:46:38.833Z,9.07
2023-03-20T01:47:49.757Z,9.09
2023-03-20T01:48:53.681Z,9.10
2023-03-20T01:50:26.826Z,9.09
2023-03-20T01:51:36.812Z,9.08
2023-03-20T01:52:45.520Z,9.04
2023-03-20T01:53:53.156Z,9.04
2023-03-20T01:54:56.669Z,9.05
2023-03-20T01:56:01.628Z,9.06
2023-03-20T01:57:18.495Z,9.08
2023-03-20T01:58:31.587Z,9.08
2023-03-20T01:59:44.211Z,9.10
2023-03-20T02:00:49.139Z,9.11
2023-03-20T02:01:52.478Z,9.13
2023-03-20T02:02:56.824Z,9.14
2023-03-20T02:04:26.044Z,9.16
2023-03-20T02:05:34.185Z,9.13
2023-03-20T02:06:40.331Z,9.13
2023-03-20T02:08:10.626Z,9.14
2023-03-20T02:09:13.850Z,9.15
2023-03-20T02:10:19.186Z,9.16
2023-03-20T02:11:41.989Z,9.15
2023-03-20T02:12:47.504Z,9.15
2023-03-20T02:13:57.281Z,9.16
2023-03-20T02:15:02.356Z,9.17
2023-03-20T02:16:31.182Z,9.20
2023-03-20T02:17:43.763Z,9.19
2023-03-20T02:18:50.553Z,9.19
2023-03-20T02:20:12.539Z,9.20
2023-03-20T02:21:36.272Z,9.19
2023-03-20T02:23:06.420Z,9.17
2023-03-20T02:24:48.283Z,9.14
2023-03-20T02:25:57.775Z,9.11
2023-03-20T02:27:33.228Z,9.06
2023-03-20T02:29:01.146Z,8.99
2023-03-20T02:30:41.076Z,8.96
2023-03-20T02:31:58.373Z,8.95
2023-03-20T02:33:23.812Z,8.92
2023-03-20T02:35:09.613Z,8.89
2023-03-20T02:36:42.322Z,8.84
2023-03-20T02:38:06.603Z,8.78
2023-03-20T02:39:25.611Z,8.74
2023-03-20T02:40:54.583Z,8.69
2023-03-20T02:42:08.803Z,8.66
2023-03-20T02:43:26.517Z,8.65
2023-03-20T02:44:44.606Z,8.66
2023-03-20T02:46:14.142Z,8.69
2023-03-20T02:47:26.733Z,8.72
2023-03-20T02:48:33.129Z,8.73
2023-03-20T02:50:05.349Z,8.74
2023-03-20T02:51:18.274Z,8.74
2023-03-20T02:52:33.675Z,8.72
2023-03-20T02:53:54.935Z,8.72
2023-03-20T02:55:21.600Z,8.72
2023-03-20T02:56:51.346Z,8.70
2023-03-20T02:58:00.413Z,8.67
2023-03-20T02:59:12.205Z,8.64
2023-03-20T03:00:35.642Z,8.61
2023-03-20T03:01:44.478Z,8.59
2023-03-20T03:02:59.969Z,8.58
2023-03-20T03:04:12.932Z,8.57
2023-03-20T03:05:24.692Z,8.57
2023-03-20T03:06:32.662Z,8.56
2023-03-20T03:07:39.221Z,8.52
2023-03-20T03:08:50.041Z,8.48
2023-03-20T03:10:00.090Z,8.49
2023-03-20T03:11:08.805Z,8.49
2023-03-20T03:12:18.323Z,8.50
2023-03-20T03:13:27.080Z,8.50
2023-03-20T03:14:37.118Z,8.49
2023-03-20T03:15:48.462Z,8.46
2023-03-20T03:16:52.998Z,8.45
2023-03-20T03:17:58.541Z,8.42
2023-03-20T03:19:09.383Z,8.42
2023-03-20T03:20:26.649Z,8.41
2023-03-20T03:21:33.486Z,8.41
2023-03-20T03:22:36.958Z,8.40
2023-03-20T03:23:47.874Z,8.40
2023-03-20T03:24:53.226Z,8.39
2023-03-20T03:26:01.155Z,8.38
2023-03-20T03:27:17.669Z,8.37
2023-03-20T03:28:37.648Z,8.38
2023-03-20T03:29:42.459Z,8.37
2023-03-20T03:30:46.746Z,8.37
2023-03-20T03:31:49.685Z,8.37
2023-03-20T03:33:29.960Z,8.38
2023-03-20T03:34:35.052Z,8.35
2023-03-20T03:35:39.212Z,8.33
2023-03-20T03:36:54.556Z,8.33
2023-03-20T03:37:57.599Z,8.34
2023-03-20T03:39:19.526Z,8.34
2023-03-20T03:40:44.785Z,8.33
2023-03-20T03:41:54.037Z,8.33
2023-03-20T03:43:21.389Z,8.33
2023-03-20T03:44:48.657Z,8.34
2023-03-20T03:46:06.301Z,8.35
2023-03-20T03:47:21.599Z,8.38
2023-03-20T03:48:32.908Z,8.39
2023-03-20T03:49:44.088Z,8.39
2023-03-20T03:51:11.111Z,8.42
2023-03-20T03:52:23.627Z,8.44
2023-03-20T03:53:34.752Z,8.44
2023-03-20T03:54:53.447Z,8.45
2023-03-20T03:56:12.757Z,8.47
2023-03-20T03:57:20.594Z,8.48
2023-03-20T03:58:33.242Z,8.49
2023-03-20T03:59:40.435Z,8.52
2023-03-20T04:00:48.043Z,8.53
2023-03-20T04:01:52.531Z,8.56
2023-03-20T04:02:58.300Z,8.59
2023-03-20T04:04:06.285Z,8.62
2023-03-20T04:05:10.417Z,8.65
2023-03-20T04:06:15.957Z,8.67
2023-03-20T04:07:19.393Z,8.70
2023-03-20T04:08:22.427Z,8.72
2023-03-20T04:09:25.426Z,8.75
2023-03-20T04:10:28.602Z,8.77
2023-03-20T04:11:31.799Z,8.80
2023-03-20T04:12:40.675Z,8.82
2023-03-20T04:13:49.002Z,8.84
2023-03-20T04:14:51.982Z,8.87
2023-03-20T04:15:57.964Z,8.89
2023-03-20T04:17:02.910Z,8.91
2023-03-20T04:18:14.708Z,8.93
2023-03-20T04:19:17.779Z,8.95
2023-03-20T04:20:22.823Z,8.97
2023-03-20T04:21:25.882Z,8.99
2023-03-20T04:22:28.932Z,9.01
2023-03-20T04:23:35.710Z,9.03
2023-03-20T04:24:38.962Z,9.04
2023-03-20T04:25:42.205Z,9.06
2023-03-20T04:26:46.900Z,9.08
2023-03-20T04:27:50.425Z,9.11
2023-03-20T04:29:11.136Z,9.15
2023-03-20T04:30:34.315Z,9.18
2023-03-20T04:32:09.896Z,9.22
2023-03-20T04:33:32.821Z,9.26
2023-03-20T04:34:56.482Z,9.29
2023-03-20T04:36:14.035Z,9.32
2023-03-20T04:37:17.091Z,9.35
2023-03-20T04:38:34.752Z,9.37
2023-03-20T04:39:38.075Z,9.39
2023-03-20T04:40:41.279Z,9.40
2023-03-20T04:41:44.636Z,9.42
2023-03-20T04:42:47.634Z,9.45
2023-03-20T04:43:50.659Z,9.48
2023-03-20T04:44:53.810Z,9.50
2023-03-20T04:45:58.725Z,9.52
2023-03-20T04:47:02.017Z,9.53
2023-03-20T04:48:07.137Z,9.50
2023-03-20T04:49:10.615Z,9.48
2023-03-20T04:50:14.302Z,9.48
2023-03-20T04:51:17.180Z,9.48
2023-03-20T04:52:24.677Z,9.49
2023-03-20T04:53:28.058Z,9.51
2023-03-20T04:54:31.728Z,9.53
2023-03-20T04:55:34.877Z,9.55
2023-03-20T04:56:38.026Z,9.57
2023-03-20T04:57:59.414Z,9.58
2023-03-20T04:59:03.322Z,9.60
2023-03-20T05:00:06.815Z,9.63
2023-03-20T05:01:09.837Z,9.64
2023-03-20T05:02:15.053Z,9.66
2023-03-20T05:03:17.964Z,9.66
2023-03-20T05:04:21.523Z,9.65
2023-03-20T05:05:25.198Z,9.65
2023-03-20T05:06:29.012Z,9.63
2023-03-20T05:07:32.845Z,9.60
2023-03-20T05:08:38.569Z,9.56
2023-03-20T05:09:42.191Z,9.55
2023-03-20T05:10:45.548Z,9.54
2023-03-20T05:12:11.443Z,9.55
2023-03-20T05:13:14.250Z,9.57
2023-03-20T05:14:40.325Z,9.59
2023-03-20T05:16:09.600Z,9.58
2023-03-20T05:17:18.473Z,9.57
2023-03-20T05:18:47.614Z,9.58
2023-03-20T05:20:07.770Z,9.56
2023-03-20T05:21:22.285Z,9.56
2023-03-20T05:22:48.995Z,9.57
2023-03-20T05:24:10.699Z,9.57
2023-03-20T05:25:26.664Z,9.58
2023-03-20T05:26:55.497Z,9.59
2023-03-20T05:28:21.282Z,9.58
2023-03-20T05:29:50.294Z,9.58
2023-03-20T05:31:09.048Z,9.58
2023-03-20T05:32:28.217Z,9.58
2023-03-20T05:33:43.589Z,9.58
2023-03-20T05:34:54.916Z,9.59
2023-03-20T05:36:10.072Z,9.60
2023-03-20T05:37:27.211Z,9.62
2023-03-20T05:38:43.499Z,9.62
2023-03-20T05:40:03.294Z,9.63
2023-03-20T05:41:26.022Z,9.63
2023-03-20T05:42:57.851Z,9.62
2023-03-20T05:44:26.975Z,9.63
2023-03-20T05:45:59.011Z,9.64
2023-03-20T05:47:34.583Z,9.67
2023-03-20T05:49:13.229Z,9.70
2023-03-20T05:50:28.647Z,9.72
2023-03-20T05:51:57.952Z,9.74
2023-03-20T05:53:18.637Z,9.78
2023-03-20T05:54:30.727Z,9.81
2023-03-20T05:55:41.565Z,9.83
2023-03-20T05:57:07.191Z,9.87
2023-03-20T05:58:28.273Z,9.89
2023-03-20T05:59:38.773Z,9.91
2023-03-20T06:01:16.542Z,9.94
2023-03-20T06:02:38.410Z,9.97
2023-03-20T06:03:49.068Z,10.00
2023-03-20T06:04:53.335Z,10.03
2023-03-20T06:06:01.466Z,10.06
2023-03-20T06:07:06.398Z,10.07
2023-03-20T06:08:09.504Z,10.08
2023-03-20T06:09:12.335Z,10.11
2023-03-20T06:10:16.210Z,10.15
2023-03-20T06:11:19.333Z,10.18
2023-03-20T06:12:22.783Z,10.22
2023-03-20T06:13:26.191Z,10.26
2023-03-20T06:14:29.166Z,10.28
2023-03-20T06:15:35.863Z,10.31
2023-03-20T06:16:47.058Z,10.34
2023-03-20T06:17:50.865Z,10.37
2023-03-20T06:18:53.913Z,10.37
2023-03-20T06:19:58.512Z,10.40
2023-03-20T06:21:02.554Z,10.43
2023-03-20T06:22:05.890Z,10.44
2023-03-20T06:23:09.455Z,10.45
2023-03-20T06:24:12.538Z,10.49
2023-03-20T06:25:16.391Z,10.52
2023-03-20T06:26:20.431Z,10.56
2023-03-20T06:27:31.856Z,10.58
2023-03-20T06:28:35.425Z,10.62
2023-03-20T06:29:41.794Z,10.65
2023-03-20T06:30:53.480Z,10.69
2023-03-20T06:31:58.171Z,10.72
2023-03-20T06:33:07.020Z,10.76
2023-03-20T06:34:15.110Z,10.80
2023-03-20T06:35:21.215Z,10.83
2023-03-20T06:36:25.521Z,10.87
2023-03-20T06:37:32.384Z,10.88
2023-03-20T06:38:42.260Z,10.89
2023-03-20T06:39:48.724Z,10.88
2023-03-20T06:40:51.804Z,10.89
2023-03-20T06:41:55.105Z,10.89
2023-03-20T06:42:59.746Z,10.89
2023-03-20T06:44:10.754Z,10.89
2023-03-20T06:45:40.244Z,10.87
2023-03-20T06:46:53.551Z,10.87
2023-03-20T06:47:56.449Z,10.89
2023-03-20T06:48:59.460Z,10.90
2023-03-20T06:50:02.485Z,10.94
2023-03-20T06:51:08.172Z,10.97
2023-03-20T06:52:21.614Z,10.99
2023-03-20T06:53:32.947Z,11.02
2023-03-20T06:54:45.030Z,11.06
2023-03-20T06:55:51.701Z,11.09
2023-03-20T06:56:54.729Z,11.12
2023-03-20T06:57:58.147Z,11.15
2023-03-20T06:59:01.308Z,11.18
2023-03-20T07:00:06.343Z,11.23
2023-03-20T07:01:17.312Z,11.28
2023-03-20T07:02:20.948Z,11.34
2023-03-20T07:03:23.859Z,11.39
2023-03-20T07:04:27.734Z,11.42
2023-03-20T07:05:34.197Z,11.46
2023-03-20T07:06:38.894Z,11.50
2023-03-20T07:07:42.327Z,11.53
2023-03-20T07:08:45.527Z,11.57
2023-03-20T07:09:48.715Z,11.61
2023-03-20T07:10:51.797Z,11.63
2023-03-20T07:11:55.008Z,11.68
2023-03-20T07:12:58.995Z,11.72
2023-03-20T07:14:02.398Z,11.76
2023-03-20T07:15:23.272Z,11.80
2023-03-20T07:16:26.439Z,11.81
2023-03-20T07:17:29.930Z,11.83
2023-03-20T07:18:33.575Z,11.83
2023-03-20T07:19:38.233Z,11.85
2023-03-20T07:20:41.642Z,11.84
2023-03-20T07:21:45.039Z,11.83
2023-03-20T07:22:48.798Z,11.85
2023-03-20T07:23:54.620Z,11.88
2023-03-20T07:24:58.113Z,11.88
2023-03-20T07:26:01.598Z,11.89
2023-03-20T07:27:04.844Z,11.90
2023-03-20T07:28:08.972Z,11.92
2023-03-20T07:29:14.009Z,11.92
2023-03-20T07:30:19.290Z,11.93
2023-03-20T07:31:25.918Z,11.93
2023-03-20T07:32:58.575Z,11.93
2023-03-20T07:34:04.669Z,11.91
2023-03-20T07:35:10.208Z,11.91
2023-03-20T07:36:16.647Z,11.94
2023-03-20T07:37:20.269Z,11.97
2023-03-20T07:38:33.621Z,11.99
2023-03-20T07:39:43.356Z,11.99
2023-03-20T07:41:06.819Z,12.02
2023-03-20T07:42:11.348Z,12.05
2023-03-20T07:43:20.782Z,12.10
2023-03-20T07:44:35.953Z,12.15
2023-03-20T07:45:44.406Z,12.19
2023-03-20T07:46:47.927Z,12.24
2023-03-20T07:47:51.459Z,12.28
2023-03-20T07:48:54.333Z,12.31
2023-03-20T07:49:57.172Z,12.32
2023-03-20T07:50:59.943Z,12.34
2023-03-20T07:52:03.269Z,12.35
2023-03-20T07:53:06.251Z,12.36
2023-03-20T07:54:09.108Z,12.36
2023-03-20T07:55:13.150Z,12.37
2023-03-20T07:56:16.043Z,12.38
2023-03-20T07:57:18.954Z,12.39
2023-03-20T07:58:22.590Z,12.39
2023-03-20T07:59:25.442Z,12.40
2023-03-20T08:00:28.531Z,12.40
2023-03-20T08:01:31.395Z,12.41
2023-03-20T08:02:34.822Z,12.42
2023-03-20T08:03:39.654Z,12.44
2023-03-20T08:04:43.509Z,12.46
2023-03-20T08:05:47.534Z,12.47
2023-03-20T08:06:51.773Z,12.50
2023-03-20T08:07:55.027Z,12.51
2023-03-20T08:08:57.966Z,12.54
2023-03-20T08:10:00.938Z,12.56
2023-03-20T08:11:04.046Z,12.57
2023-03-20T08:12:07.360Z,12.58
2023-03-20T08:13:10.513Z,12.58
2023-03-20T08:14:13.429Z,12.60
2023-03-20T08:15:16.770Z,12.62
2023-03-20T08:16:26.830Z,12.63
2023-03-20T08:17:29.686Z,12.65
2023-03-20T08:18:33.215Z,12.66
2023-03-20T08:19:36.462Z,12.68
2023-03-20T08:20:39.306Z,12.70
2023-03-20T08:21:42.197Z,12.72
2023-03-20T08:22:45.742Z,12.74
2023-03-20T08:23:48.799Z,12.77
2023-03-20T08:24:51.593Z,12.80
2023-03-20T08:25:54.410Z,12.83
2023-03-20T08:26:57.608Z,12.86
2023-03-20T08:28:01.791Z,12.89
2023-03-20T08:29:04.847Z,12.89
2023-03-20T08:30:09.581Z,12.89
2023-03-20T08:31:12.649Z,12.89
2023-03-20T08:32:15.604Z,12.90
2023-03-20T08:33:19.071Z,12.94
2023-03-20T08:34:24.051Z,12.95
2023-03-20T08:35:33.351Z,12.93
2023-03-20T08:36:48.248Z,12.95
2023-03-20T08:37:51.052Z,12.96
2023-03-20T08:38:53.879Z,12.99
2023-03-20T08:39:56.975Z,13.00
2023-03-20T08:40:59.817Z,13.03
2023-03-20T08:42:02.668Z,13.06
2023-03-20T08:43:05.669Z,13.10
2023-03-20T08:44:08.537Z,13.14
2023-03-20T08:45:11.962Z,13.17
2023-03-20T08:46:15.021Z,13.21
2023-03-20T08:47:17.849Z,13.23
2023-03-20T08:48:21.207Z,13.27
2023-03-20T08:49:24.454Z,13.29
2023-03-20T08:50:27.687Z,13.29
2023-03-20T08:51:30.928Z,13.32
2023-03-20T08:52:33.815Z,13.36
2023-03-20T08:53:37.158Z,13.40
2023-03-20T08:54:39.960Z,13.44
2023-03-20T08:55:49.141Z,13.46
2023-03-20T08:56:52.063Z,13.44
2023-03-20T08:57:57.360Z,13.45
2023-03-20T08:59:00.162Z,13.45
2023-03-20T09:00:04.411Z,13.47
2023-03-20T09:01:09.380Z,13.49
2023-03-20T09:02:12.808Z,13.52
2023-03-20T09:03:18.973Z,13.54
2023-03-20T09:04:21.848Z,13.58
2023-03-20T09:05:24.649Z,13.61
2023-03-20T09:06:27.479Z,13.66
2023-03-20T09:07:30.298Z,13.71
2023-03-20T09:08:33.170Z,13.77
2023-03-20T09:09:36.299Z,13.82
2023-03-20T09:10:40.736Z,13.86
2023-03-20T09:11:43.662Z,13.89
2023-03-20T09:12:46.875Z,13.92
2023-03-20T09:13:49.909Z,13.97
2023-03-20T09:14:52.847Z,14.04
2023-03-20T09:15:56.943Z,14.10
2023-03-20T09:16:59.965Z,14.16
2023-03-20T09:18:04.003Z,14.19
2023-03-20T09:19:07.070Z,14.23
2023-03-20T09:20:10.778Z,14.29
2023-03-20T09:21:13.640Z,14.34
2023-03-20T09:22:19.640Z,14.39
2023-03-20T09:23:22.913Z,14.47
2023-03-20T09:24:25.847Z,14.55
2023-03-20T09:25:28.862Z,14.62
2023-03-20T09:26:31.645Z,14.69
2023-03-20T09:27:34.487Z,14.76
2023-03-20T09:28:37.324Z,14.82
2023-03-20T09:29:41.491Z,14.87
2023-03-20T09:30:45.409Z,14.92
2023-03-20T09:31:48.239Z,14.97
2023-03-20T09:32:51.626Z,15.04
2023-03-20T09:33:54.468Z,15.09
2023-03-20T09:34:57.282Z,15.15
2023-03-20T09:36:00.720Z,15.21
2023-03-20T09:37:04.236Z,15.25
2023-03-20T09:38:07.446Z,15.28
2023-03-20T09:39:10.361Z,15.33
2023-03-20T09:40:27.847Z,15.36
2023-03-20T09:41:49.184Z,15.37
2023-03-20T09:43:02.834Z,15.41
2023-03-20T09:44:17.655Z,15.44
2023-03-20T09:45:30.875Z,15.49
2023-03-20T09:46:39.459Z,15.55
2023-03-20T09:48:04.165Z,15.58
2023-03-20T09:49:17.679Z,15.62
2023-03-20T09:50:36.381Z,15.61
2023-03-20T09:51:49.447Z,15.54
2023-03-20T09:53:07.351Z,15.45
2023-03-20T09:54:20.946Z,15.37
2023-03-20T09:55:31.918Z,15.31
2023-03-20T09:56:35.409Z,15.26
2023-03-20T09:57:42.719Z,15.19
2023-03-20T09:58:53.499Z,15.07
2023-03-20T10:00:01.569Z,14.94
2023-03-20T10:01:06.894Z,14.89
2023-03-20T10:02:24.556Z,14.85
2023-03-20T10:03:56.958Z,14.78
2023-03-20T10:04:59.777Z,14.70
2023-03-20T10:06:12.068Z,14.69
2023-03-20T10:07:17.266Z,14.70
2023-03-20T10:08:24.754Z,14.70
2023-03-20T10:09:31.856Z,14.74
2023-03-20T10:10:42.296Z,14.76
2023-03-20T10:12:04.094Z,14.75
2023-03-20T10:13:45.738Z,14.75
2023-03-20T10:15:08.286Z,14.72
2023-03-20T10:16:55.693Z,14.70
2023-03-20T10:18:17.461Z,14.67
2023-03-20T10:19:28.050Z,14.63
2023-03-20T10:20:45.654Z,14.62
2023-03-20T10:21:56.279Z,14.61
2023-03-20T10:23:06.127Z,14.61
2023-03-20T10:24:22.683Z,14.61
2023-03-20T10:25:42.317Z,14.63
2023-03-20T10:26:50.073Z,14.66
2023-03-20T10:28:00.376Z,14.69
2023-03-20T10:29:20.382Z,14.71
2023-03-20T10:30:35.975Z,14.79
2023-03-20T10:31:58.729Z,14.85
2023-03-20T10:33:19.096Z,14.88
2023-03-20T10:34:49.923Z,14.90
2023-03-20T10:36:21.637Z,14.88
2023-03-20T10:37:50.029Z,14.83
2023-03-20T10:39:03.133Z,14.82
2023-03-20T10:40:27.573Z,14.80
2023-03-20T10:41:36.343Z,14.81
2023-03-20T10:42:44.824Z,14.78
2023-03-20T10:43:51.453Z,14.73
2023-03-20T10:45:47.231Z,14.69
2023-03-20T10:46:53.738Z,14.64
2023-03-20T10:48:00.733Z,14.66
2023-03-20T10:49:14.240Z,14.64
2023-03-20T10:50:25.724Z,14.60
2023-03-20T10:51:46.424Z,14.53
2023-03-20T10:52:54.006Z,14.49
2023-03-20T10:54:02.504Z,14.48
2023-03-20T10:55:12.492Z,14.46
2023-03-20T10:56:27.504Z,14.46
2023-03-20T10:57:34.618Z,14.50
2023-03-20T10:58:40.972Z,14.54
2023-03-20T10:59:56.674Z,14.56
2023-03-20T11:01:00.586Z,14.57
2023-03-20T11:02:11.507Z,14.56
2023-03-20T11:03:23.499Z,14.52
2023-03-20T11:04:26.450Z,14.48
2023-03-20T11:05:32.893Z,14.41
2023-03-20T11:06:47.282Z,14.34
2023-03-20T11:08:07.560Z,14.27
2023-03-20T11:09:17.798Z,14.20
2023-03-20T11:10:20.683Z,14.18
2023-03-20T11:11:26.687Z,14.16
2023-03-20T11:12:33.720Z,14.12
2023-03-20T11:13:44.821Z,14.10
2023-03-20T11:14:47.643Z,14.06
2023-03-20T11:15:53.050Z,14.06
2023-03-20T11:17:02.019Z,14.09
2023-03-20T11:18:07.823Z,14.09
2023-03-20T11:19:11.883Z,14.11
2023-03-20T11:20:14.837Z,14.12
2023-03-20T11:21:24.906Z,14.10
2023-03-20T11:22:28.819Z,14.07
2023-03-20T11:23:35.837Z,14.03
2023-03-20T11:24:47.319Z,13.98
2023-03-20T11:26:12.147Z,13.96
2023-03-20T11:27:24.594Z,13.94
2023-03-20T11:28:36.138Z,13.92
2023-03-20T11:29:43.181Z,13.88
2023-03-20T11:31:04.015Z,13.85
2023-03-20T11:32:34.097Z,13.82
2023-03-20T11:33:45.403Z,13.76
2023-03-20T11:34:48.452Z,13.73
2023-03-20T11:35:55.292Z,13.71
2023-03-20T11:37:10.074Z,13.66
2023-03-20T11:38:17.833Z,13.61
2023-03-20T11:39:27.316Z,13.59
2023-03-20T11:40:32.514Z,13.59
2023-03-20T11:41:42.826Z,13.58
2023-03-20T11:43:00.888Z,13.57
2023-03-20T11:44:04.041Z,13.52
2023-03-20T11:45:16.857Z,13.50
2023-03-20T11:46:23.211Z,13.45
2023-03-20T11:47:28.382Z,13.41
2023-03-20T11:48:40.753Z,13.36
2023-03-20T11:49:50.337Z,13.33
2023-03-20T11:51:07.348Z,13.28
2023-03-20T11:52:15.953Z,13.24
2023-03-20T11:53:33.904Z,13.20
2023-03-20T11:54:38.650Z,13.17
2023-03-20T11:55:42.774Z,13.15
2023-03-20T11:56:56.373Z,13.18
2023-03-20T11:58:01.093Z,13.21
2023-03-20T11:59:14.758Z,13.21
2023-03-20T12:00:24.270Z,13.18
2023-03-20T12:01:28.991Z,13.14
2023-03-20T12:02:32.466Z,13.08
2023-03-20T12:04:27.372Z,13.02
2023-03-20T12:05:39.796Z,12.88
2023-03-20T12:06:50.597Z,12.80
2023-03-20T12:07:58.169Z,12.74
2023-03-20T12:09:12.026Z,12.71
2023-03-20T12:10:15.615Z,12.67
2023-03-20T12:11:46.733Z,12.64
2023-03-20T12:12:49.531Z,12.60
2023-03-20T12:13:57.478Z,12.55
2023-03-20T12:15:18.639Z,12.54
2023-03-20T12:16:25.178Z,12.48
2023-03-20T12:17:56.990Z,12.47
2023-03-20T12:19:03.082Z,12.54
2023-03-20T12:20:15.150Z,12.63
2023-03-20T12:21:27.138Z,12.75
2023-03-20T12:22:49.613Z,12.92
2023-03-20T12:24:04.564Z,13.14
2023-03-20T12:25:20.188Z,13.33
2023-03-20T12:26:34.503Z,13.40
2023-03-20T12:27:46.134Z,13.40
2023-03-20T12:29:03.000Z,13.39
2023-03-20T12:30:20.973Z,13.39
2023-03-20T12:31:26.311Z,13.40
2023-03-20T12:32:52.246Z,13.56
2023-03-20T12:34:01.579Z,13.86
2023-03-20T12:35:17.192Z,14.17
2023-03-20T12:36:36.058Z,14.50
2023-03-20T12:37:39.008Z,14.71
2023-03-20T12:38:43.433Z,14.80
2023-03-20T12:39:54.829Z,14.74
2023-03-20T12:41:19.865Z,14.62
2023-03-20T12:42:54.755Z,14.63
2023-03-20T12:44:19.851Z,14.68
2023-03-20T12:46:05.956Z,14.66
2023-03-20T12:47:40.000Z,14.89
2023-03-20T12:49:11.474Z,15.02
2023-03-20T12:50:39.487Z,15.05
2023-03-20T12:52:01.479Z,14.97
2023-03-20T12:53:16.333Z,14.88
2023-03-20T12:54:57.172Z,14.87
2023-03-20T12:56:32.524Z,14.87
2023-03-20T12:57:41.390Z,14.93
2023-03-20T12:58:52.236Z,14.94
2023-03-20T12:59:55.135Z,14.99
2023-03-20T13:01:04.160Z,15.17
2023-03-20T13:02:33.824Z,15.45
2023-03-20T13:03:58.543Z,15.61
2023-03-20T13:05:22.455Z,15.60
2023-03-20T13:06:40.686Z,15.65
2023-03-20T13:08:00.084Z,15.75
2023-03-20T13:09:44.681Z,15.75
2023-03-20T13:11:29.531Z,15.60
2023-03-20T13:13:01.959Z,15.46
2023-03-20T13:14:31.758Z,15.34
2023-03-20T13:15:49.893Z,15.17
2023-03-20T13:17:13.714Z,14.97
2023-03-20T13:18:37.341Z,14.76
2023-03-20T13:20:12.028Z,14.53
2023-03-20T13:21:38.291Z,14.19
2023-03-20T13:23:18.154Z,13.92
2023-03-20T13:25:02.931Z,13.66
2023-03-20T13:26:18.200Z,13.44
2023-03-20T13:27:23.814Z,13.33
2023-03-20T13:28:42.083Z,13.26
2023-03-20T13:30:07.484Z,13.15
2023-03-20T13:31:27.840Z,12.99
2023-03-20T13:32:42.033Z,12.87
2023-03-20T13:33:56.640Z,12.71
2023-03-20T13:35:10.375Z,12.53
2023-03-20T13:36:30.316Z,12.39
2023-03-20T13:37:44.894Z,12.28
2023-03-20T13:39:25.833Z,12.12
2023-03-20T13:40:34.162Z,11.96
2023-03-20T13:41:39.190Z,11.83
2023-03-20T13:42:51.097Z,11.70
2023-03-20T13:44:01.132Z,11.58
2023-03-20T13:45:31.778Z,11.50
2023-03-20T13:48:28.619Z,11.26
2023-03-20T13:50:05.153Z,11.19
2023-03-20T13:51:13.506Z,11.06
2023-03-20T13:52:28.892Z,10.97
2023-03-20T13:53:43.883Z,10.89
2023-03-20T13:55:01.325Z,10.82
2023-03-20T13:56:22.393Z,10.77
2023-03-20T13:57:44.767Z,10.72
2023-03-20T13:59:23.407Z,10.64
2023-03-20T14:00:28.582Z,10.58
2023-03-20T14:02:22.392Z,10.53
2023-03-20T14:03:29.475Z,10.46
2023-03-20T14:04:34.085Z,10.43
2023-03-20T14:05:39.998Z,10.40
2023-03-20T14:06:58.301Z,10.40
2023-03-20T14:08:21.839Z,10.36
2023-03-20T14:09:36.599Z,10.29
2023-03-20T14:10:40.714Z,10.23
2023-03-20T14:11:44.380Z,10.19
2023-03-20T14:12:59.868Z,10.16
2023-03-20T14:14:19.976Z,10.13
2023-03-20T14:15:28.029Z,10.12
2023-03-20T14:16:31.371Z,10.09
2023-03-20T14:17:34.450Z,10.07
2023-03-20T14:18:38.300Z,10.05
2023-03-20T14:19:41.587Z,10.03
2023-03-20T14:21:01.359Z,10.03
2023-03-20T14:22:07.034Z,10.03
2023-03-20T14:23:30.051Z,10.03
2023-03-20T14:24:37.912Z,10.02
2023-03-20T14:25:46.475Z,9.98
2023-03-20T14:27:02.029Z,9.96
2023-03-20T14:28:11.014Z,9.92
2023-03-20T14:29:13.814Z,9.91
2023-03-20T14:30:32.068Z,9.88
2023-03-20T14:31:38.516Z,9.84
2023-03-20T14:32:58.040Z,9.78
2023-03-20T14:34:12.383Z,9.74
2023-03-20T14:35:17.966Z,9.72
2023-03-20T14:36:27.523Z,9.69
2023-03-20T14:37:33.639Z,9.66
2023-03-20T14:38:45.180Z,9.63
2023-03-20T14:39:56.965Z,9.62
2023-03-20T14:41:15.878Z,9.59
2023-03-20T14:42:50.179Z,9.58
2023-03-20T14:43:58.537Z,9.58
2023-03-20T14:45:13.772Z,9.58
2023-03-20T14:46:31.837Z,9.58
2023-03-20T14:48:01.985Z,9.59
2023-03-20T14:49:22.958Z,9.58
2023-03-20T14:50:39.834Z,9.57
2023-03-20T14:51:48.063Z,9.53
2023-03-20T14:53:06.939Z,9.52
2023-03-20T14:54:22.311Z,9.53
2023-03-20T14:55:25.386Z,9.52
2023-03-20T14:56:33.970Z,9.50
2023-03-20T14:57:54.776Z,9.51
2023-03-20T14:59:03.330Z,9.51
2023-03-20T15:00:18.159Z,9.51
2023-03-20T15:01:21.973Z,9.51
2023-03-20T15:02:28.839Z,9.51
2023-03-20T15:03:32.962Z,9.51
2023-03-20T15:04:42.139Z,9.54
2023-03-20T15:05:46.106Z,9.56
2023-03-20T15:06:54.899Z,9.58
2023-03-20T15:08:04.942Z,9.61
2023-03-20T15:09:10.702Z,9.63
2023-03-20T15:10:13.659Z,9.62
2023-03-20T15:11:17.162Z,9.62
2023-03-20T15:12:24.986Z,9.63
2023-03-20T15:13:28.962Z,9.64
2023-03-20T15:14:41.986Z,9.65
2023-03-20T15:15:54.337Z,9.68
2023-03-20T15:17:00.352Z,9.70
2023-03-20T15:18:10.804Z,9.71
2023-03-20T15:19:17.123Z,9.72
2023-03-20T15:20:25.837Z,9.72
2023-03-20T15:21:44.536Z,9.73
2023-03-20T15:22:50.661Z,9.76
2023-03-20T15:23:53.927Z,9.78
2023-03-20T15:24:57.819Z,9.81
2023-03-20T15:26:01.943Z,9.83
2023-03-20T15:27:05.056Z,9.84
2023-03-20T15:28:12.196Z,9.87
2023-03-20T15:29:18.950Z,9.89
2023-03-20T15:30:23.047Z,9.92